Time;durP1;ratioP1;P1;durP2;ratioP2;P2;SDS_P1;SDS_P2;PMS_P1;PMS_P2;Temp;Humidity;BMP_temperature;BMP_pressure;BME280_temperature;BME280_humidity;BME280_pressure;Samples;Min_cycle;Max_cycle;Signal;HPM_P1;HPM_P2
2024/04/06 00:02:06;;;;;;;7.70;1.40;;;;;;;;;;4976755;28;20427;-87
2024/04/06 00:04:33;;;;;;;4.03;1.37;;;;;;;;;;4975414;28;20474;-76
2024/04/06 00:06:59;;;;;;;6.30;1.73;;;;;;;;;;4975733;28;20453;-77
2024/04/06 00:09:25;;;;;;;7.90;1.50;;;;;;;;;;4975632;28;20419;-85
2024/04/06 00:11:51;;;;;;;7.83;1.70;;;;;;;;;;4975543;28;20418;-80
2024/04/06 00:14:20;;;;;;;7.30;1.50;;;;;;;;;;4975087;28;20423;-86
2024/04/06 00:16:46;;;;;;;10.33;1.80;;;;;;;;;;4975752;28;20403;-87
2024/04/06 00:19:12;;;;;;;6.57;1.47;;;;;;;;;;4975667;28;20955;-81
2024/04/06 00:21:38;;;;;;;6.27;1.63;;;;;;;;;;4974181;28;20775;-91
2024/04/06 00:24:04;;;;;;;6.30;1.53;;;;;;;;;;4975439;28;20478;-83
2024/04/06 00:26:30;;;;;;;7.50;1.80;;;;;;;;;;4975339;28;20547;-85
2024/04/06 00:28:56;;;;;;;9.47;1.57;;;;;;;;;;4974885;28;20420;-85
2024/04/06 00:31:22;;;;;;;5.40;1.13;;;;;;;;;;4975301;28;20521;-77
2024/04/06 00:33:48;;;;;;;7.80;1.13;;;;;;;;;;4975316;28;20422;-77
2024/04/06 00:36:14;;;;;;;8.03;1.20;;;;;;;;;;4975519;28;20423;-89
2024/04/06 00:38:40;;;;;;;6.33;1.10;;;;;;;;;;4976047;28;20416;-94
2024/04/06 00:41:06;;;;;;;8.20;1.50;;;;;;;;;;4975548;28;20458;-83
2024/04/06 00:43:32;;;;;;;13.60;2.77;;;;;;;;;;4983474;28;20500;-77
2024/04/06 00:45:58;;;;;;;6.23;1.40;;;;;;;;;;4994287;28;20465;-88
2024/04/06 00:48:24;;;;;;;7.70;1.60;;;;;;;;;;4993649;28;20932;-94
2024/04/06 00:50:52;;;;;;;8.23;3.00;;;;;;;;;;4994544;28;20421;-81
2024/04/06 00:53:18;;;;;;;5.93;2.23;;;;;;;;;;4994545;28;20421;-85
2024/04/06 00:55:44;;;;;;;5.23;1.63;;;;;;;;;;4993301;28;20425;-84
2024/04/06 00:58:10;;;;;;;6.47;0.90;;;;;;;;;;4993979;28;20178;-92
2024/04/06 01:00:36;;;;;;;7.00;1.67;;;;;;;;;;4994304;28;20422;-80
2024/04/06 01:03:02;;;;;;;4.63;1.13;;;;;;;;;;4994033;28;20414;-86
2024/04/06 01:05:28;;;;;;;9.00;1.90;;;;;;;;;;4994049;28;20426;-87
2024/04/06 01:07:54;;;;;;;10.03;1.97;;;;;;;;;;4994109;28;20783;-91
2024/04/06 01:10:20;;;;;;;7.03;2.10;;;;;;;;;;4994332;28;20422;-77
2024/04/06 01:12:46;;;;;;;5.23;1.57;;;;;;;;;;4993881;28;20418;-92
2024/04/06 01:15:12;;;;;;;11.70;2.50;;;;;;;;;;4994046;28;20438;-79
2024/04/06 01:17:38;;;;;;;6.20;1.57;;;;;;;;;;4994020;28;20473;-88
2024/04/06 01:20:06;;;;;;;5.63;1.87;;;;;;;;;;4989289;28;20431;-89
2024/04/06 01:22:32;;;;;;;9.17;1.67;;;;;;;;;;4993890;28;20418;-88
2024/04/06 01:24:59;;;;;;;8.23;2.40;;;;;;;;;;4994047;28;20483;-80
2024/04/06 01:27:25;;;;;;;6.40;1.80;;;;;;;;;;4993734;28;20167;-88
2024/04/06 01:29:51;;;;;;;9.50;2.10;;;;;;;;;;4993912;28;20425;-77
2024/04/06 01:32:17;;;;;;;4.77;1.23;;;;;;;;;;4992508;28;20429;-85
2024/04/06 01:34:43;;;;;;;7.50;1.33;;;;;;;;;;4992695;28;20999;-77
2024/04/06 01:37:09;;;;;;;8.90;2.40;;;;;;;;;;4993713;28;20461;-80
2024/04/06 01:39:35;;;;;;;8.13;2.10;;;;;;;;;;4992404;28;20441;-77
2024/04/06 01:42:01;;;;;;;7.70;1.63;;;;;;;;;;4993445;28;20415;-90
2024/04/06 01:44:27;;;;;;;7.90;2.00;;;;;;;;;;4992756;28;20501;-79
2024/04/06 01:46:53;;;;;;;6.50;1.63;;;;;;;;;;4992880;28;20217;-77
2024/04/06 01:49:19;;;;;;;7.77;2.93;;;;;;;;;;4993331;28;20437;-76
2024/04/06 01:51:45;;;;;;;4.37;1.60;;;;;;;;;;4993475;28;20405;-80
2024/04/06 01:54:11;;;;;;;4.87;1.03;;;;;;;;;;4993739;28;20919;-77
2024/04/06 01:56:37;;;;;;;7.90;2.37;;;;;;;;;;4993750;28;20418;-82
2024/04/06 01:59:03;;;;;;;6.77;1.83;;;;;;;;;;4993405;28;20186;-84
2024/04/06 02:01:29;;;;;;;10.60;2.17;;;;;;;;;;4996412;28;20447;-77
2024/04/06 02:03:55;;;;;;;5.37;1.97;;;;;;;;;;4997210;28;20225;-87
2024/04/06 02:06:21;;;;;;;6.53;1.30;;;;;;;;;;4995858;28;20919;-82
2024/04/06 02:08:46;;;;;;;3.57;1.23;;;;;;;;;;4997022;28;20454;-77
2024/04/06 02:11:12;;;;;;;5.20;2.30;;;;;;;;;;4997347;28;20178;-77
2024/04/06 02:13:38;;;;;;;8.13;2.43;;;;;;;;;;4997133;28;20426;-90
2024/04/06 02:16:04;;;;;;;4.93;1.67;;;;;;;;;;4997160;28;20783;-78
2024/04/06 02:18:30;;;;;;;6.90;2.27;;;;;;;;;;4997343;28;20182;-87
2024/04/06 02:20:56;;;;;;;5.50;3.10;;;;;;;;;;4997008;28;20415;-80
2024/04/06 02:23:22;;;;;;;5.70;1.37;;;;;;;;;;4996917;28;20207;-83
2024/04/06 02:25:48;;;;;;;4.27;1.73;;;;;;;;;;4996766;28;20421;-91
2024/04/06 02:28:14;;;;;;;5.60;2.47;;;;;;;;;;4996341;28;20413;-77
2024/04/06 02:30:40;;;;;;;5.50;2.07;;;;;;;;;;4995543;28;20192;-77
2024/04/06 02:33:06;;;;;;;5.77;1.80;;;;;;;;;;4995644;28;20607;-83
2024/04/06 02:35:32;;;;;;;4.10;1.87;;;;;;;;;;4996589;28;20516;-76
2024/04/06 02:37:58;;;;;;;6.40;1.33;;;;;;;;;;4996309;28;20851;-76
2024/04/06 02:40:24;;;;;;;4.93;1.77;;;;;;;;;;4996558;28;20779;-79
2024/04/06 02:42:50;;;;;;;5.03;2.23;;;;;;;;;;4996141;28;20498;-77
2024/04/06 02:45:15;;;;;;;5.60;2.20;;;;;;;;;;4996203;28;20470;-77
2024/04/06 02:47:41;;;;;;;10.00;2.40;;;;;;;;;;4996554;28;20422;-76
2024/04/06 02:50:07;;;;;;;7.40;2.10;;;;;;;;;;4996411;28;20419;-76
2024/04/06 02:52:33;;;;;;;8.07;2.13;;;;;;;;;;4996286;28;20481;-76
2024/04/06 02:54:59;;;;;;;5.27;2.40;;;;;;;;;;4996402;28;20445;-76
2024/04/06 02:57:25;;;;;;;6.50;2.07;;;;;;;;;;4996221;28;20186;-91
2024/04/06 02:59:51;;;;;;;3.80;1.90;;;;;;;;;;4996348;28;20178;-77
2024/04/06 03:02:19;;;;;;;5.40;2.23;;;;;;;;;;4996481;28;20411;-86
2024/04/06 03:04:45;;;;;;;3.97;3.17;;;;;;;;;;4994716;28;20251;-77
2024/04/06 03:07:11;;;;;;;11.13;3.20;;;;;;;;;;4996329;28;20488;-76
2024/04/06 03:09:37;;;;;;;6.97;3.00;;;;;;;;;;4996391;28;20182;-84
2024/04/06 03:12:03;;;;;;;7.63;1.80;;;;;;;;;;4994819;28;20421;-85
2024/04/06 03:14:29;;;;;;;7.83;3.90;;;;;;;;;;4995883;28;20417;-80
2024/04/06 03:16:55;;;;;;;4.10;1.93;;;;;;;;;;4994442;28;20521;-77
2024/04/06 03:19:21;;;;;;;7.33;2.50;;;;;;;;;;4995446;28;20499;-85
2024/04/06 03:21:48;;;;;;;6.00;1.77;;;;;;;;;;4995309;28;20549;-83
2024/04/06 03:24:14;;;;;;;4.13;2.17;;;;;;;;;;4995314;28;20479;-86
2024/04/06 03:26:42;;;;;;;4.00;2.27;;;;;;;;;;4995094;28;20421;-88
2024/04/06 03:29:08;;;;;;;3.70;2.00;;;;;;;;;;4995478;28;20480;-78
2024/04/06 03:31:34;;;;;;;6.57;3.10;;;;;;;;;;4995630;28;20421;-82
2024/04/06 03:34:00;;;;;;;5.90;2.50;;;;;;;;;;4994802;28;20599;-77
2024/04/06 03:36:26;;;;;;;14.73;3.17;;;;;;;;;;4995200;28;20178;-81
2024/04/06 03:38:52;;;;;;;6.60;2.50;;;;;;;;;;4995134;28;20181;-83
2024/04/06 03:41:18;;;;;;;4.80;2.30;;;;;;;;;;4995101;28;20902;-76
2024/04/06 03:43:44;;;;;;;5.83;2.53;;;;;;;;;;4994348;28;20539;-77
2024/04/06 03:46:10;;;;;;;6.63;2.70;;;;;;;;;;4994745;28;20472;-85
2024/04/06 03:48:36;;;;;;;6.50;2.60;;;;;;;;;;4995886;28;20416;-79
2024/04/06 03:51:01;;;;;;;4.17;2.50;;;;;;;;;;4995808;28;20523;-84
2024/04/06 03:53:32;;;;;;;5.20;2.13;;;;;;;;;;4995940;28;20193;-85
2024/04/06 03:55:58;;;;;;;3.87;2.20;;;;;;;;;;4995052;28;20418;-91
2024/04/06 03:58:24;;;;;;;3.10;2.80;;;;;;;;;;4995609;28;20412;-87
2024/04/06 04:00:49;;;;;;;7.57;3.57;;;;;;;;;;4995708;28;20424;-79
2024/04/06 04:03:16;;;;;;;9.63;3.73;;;;;;;;;;4995531;28;20495;-87
2024/04/06 04:05:41;;;;;;;9.37;2.90;;;;;;;;;;4995299;28;20468;-77
2024/04/06 04:08:07;;;;;;;4.23;3.87;;;;;;;;;;4994864;28;20444;-77
2024/04/06 04:10:33;;;;;;;4.13;2.27;;;;;;;;;;4994487;28;20440;-77
2024/04/06 04:12:59;;;;;;;5.00;2.57;;;;;;;;;;4993981;28;20423;-79
2024/04/06 04:15:25;;;;;;;8.60;4.37;;;;;;;;;;4994657;28;20443;-77
2024/04/06 04:17:51;;;;;;;6.43;2.80;;;;;;;;;;4994453;28;20503;-77
2024/04/06 04:20:17;;;;;;;6.23;3.20;;;;;;;;;;4993230;28;20515;-77
2024/04/06 04:22:43;;;;;;;5.80;3.50;;;;;;;;;;4993129;28;20727;-76
2024/04/06 04:25:09;;;;;;;4.93;2.40;;;;;;;;;;4994169;28;20507;-77
2024/04/06 04:27:35;;;;;;;6.13;3.40;;;;;;;;;;4994113;28;20174;-77
2024/04/06 04:30:00;;;;;;;5.47;3.33;;;;;;;;;;4994219;28;20432;-79
2024/04/06 04:32:26;;;;;;;6.60;3.27;;;;;;;;;;4994318;28;20658;-82
2024/04/06 04:34:52;;;;;;;4.97;2.80;;;;;;;;;;4994499;28;20507;-77
2024/04/06 04:37:18;;;;;;;6.20;2.40;;;;;;;;;;4994356;28;20424;-82
2024/04/06 04:39:44;;;;;;;5.30;2.90;;;;;;;;;;4994348;28;20412;-82
2024/04/06 04:42:13;;;;;;;7.57;2.90;;;;;;;;;;4993814;28;20471;-76
2024/04/06 04:44:39;;;;;;;11.63;3.90;;;;;;;;;;4994077;28;20472;-79
2024/04/06 04:47:05;;;;;;;8.53;2.80;;;;;;;;;;4993630;28;20961;-78
2024/04/06 04:49:31;;;;;;;5.93;2.73;;;;;;;;;;4994194;28;20185;-80
2024/04/06 04:51:57;;;;;;;5.23;2.23;;;;;;;;;;4994253;28;20431;-86
2024/04/06 04:54:23;;;;;;;7.77;2.60;;;;;;;;;;4992967;28;20564;-83
2024/04/06 04:56:49;;;;;;;6.20;3.03;;;;;;;;;;4993815;28;20411;-84
2024/04/06 04:59:15;;;;;;;4.93;3.00;;;;;;;;;;4992945;28;20418;-80
2024/04/06 05:01:40;;;;;;;6.00;3.57;;;;;;;;;;4993912;28;20418;-82
2024/04/06 05:04:06;;;;;;;3.70;2.87;;;;;;;;;;4994014;28;20221;-77
2024/04/06 05:06:32;;;;;;;7.50;3.73;;;;;;;;;;4993817;28;20404;-78
2024/04/06 05:08:58;;;;;;;8.37;4.30;;;;;;;;;;4993842;28;20184;-76
2024/04/06 05:11:25;;;;;;;8.57;5.03;;;;;;;;;;4993316;28;20488;-78
2024/04/06 05:13:51;;;;;;;5.17;2.47;;;;;;;;;;4993650;28;20420;-86
2024/04/06 05:16:17;;;;;;;3.70;2.60;;;;;;;;;;4993401;28;20448;-77
2024/04/06 05:18:43;;;;;;;7.90;4.15;;;;;;;;;;4973436;28;20512;-77
2024/04/06 05:21:09;;;;;;;4.03;3.10;;;;;;;;;;4973663;28;20662;-77
2024/04/06 05:23:35;;;;;;;9.13;3.60;;;;;;;;;;4973892;28;20475;-76
2024/04/06 05:26:01;;;;;;;4.30;2.80;;;;;;;;;;4973822;28;20422;-77
2024/04/06 05:28:28;;;;;;;6.63;2.90;;;;;;;;;;4973621;28;20403;-76
2024/04/06 05:30:54;;;;;;;3.90;3.07;;;;;;;;;;4973825;28;20486;-77
2024/04/06 05:33:21;;;;;;;5.17;3.10;;;;;;;;;;4980719;28;20751;-77
2024/04/06 05:35:47;;;;;;;5.40;2.97;;;;;;;;;;4995431;28;20539;-77
2024/04/06 05:38:14;;;;;;;5.77;2.50;;;;;;;;;;4997343;28;20772;-77
2024/04/06 05:40:40;;;;;;;4.97;2.63;;;;;;;;;;4997339;28;20409;-78
2024/04/06 05:43:07;;;;;;;3.70;2.30;;;;;;;;;;4996790;28;20413;-78
2024/04/06 05:45:33;;;;;;;4.20;2.00;;;;;;;;;;4997067;28;20469;-77
2024/04/06 05:48:03;;;;;;;4.33;2.00;;;;;;;;;;4997414;28;20438;-77
2024/04/06 05:50:31;;;;;;;3.53;2.10;;;;;;;;;;4996862;28;20433;-77
2024/04/06 05:52:57;;;;;;;4.90;2.77;;;;;;;;;;4997346;28;20770;-79
2024/04/06 05:55:23;;;;;;;6.70;2.60;;;;;;;;;;4997320;28;20420;-77
2024/04/06 05:57:51;;;;;;;7.30;3.60;;;;;;;;;;4997057;28;20762;-76
2024/04/06 06:00:16;;;;;;;5.77;2.60;;;;;;;;;;4997298;28;20918;-84
2024/04/06 06:02:43;;;;;;;6.30;3.17;;;;;;;;;;4996219;28;20517;-77
2024/04/06 06:05:08;;;;;;;7.53;3.67;;;;;;;;;;4995340;28;20477;-78
2024/04/06 06:07:36;;;;;;;7.00;2.90;;;;;;;;;;4994948;28;20429;-77
2024/04/06 06:10:02;;;;;;;4.40;3.10;;;;;;;;;;4996960;28;20422;-77
2024/04/06 06:12:28;;;;;;;7.60;2.43;;;;;;;;;;4996442;28;20430;-77
2024/04/06 06:14:55;;;;;;;5.80;2.70;;;;;;;;;;4996980;28;20442;-76
2024/04/06 06:17:21;;;;;;;4.70;3.13;;;;;;;;;;4997010;28;20406;-77
2024/04/06 06:19:47;;;;;;;7.37;3.30;;;;;;;;;;4996925;28;20410;-77
2024/04/06 06:22:13;;;;;;;5.33;3.30;;;;;;;;;;4996816;28;20425;-76
2024/04/06 06:24:41;;;;;;;7.40;2.97;;;;;;;;;;4996600;28;20223;-76
2024/04/06 06:27:07;;;;;;;4.10;3.20;;;;;;;;;;4996463;28;20836;-77
2024/04/06 06:29:34;;;;;;;5.47;3.30;;;;;;;;;;4996891;28;20412;-78
2024/04/06 06:32:00;;;;;;;3.50;2.93;;;;;;;;;;4996751;28;20419;-79
2024/04/06 06:34:26;;;;;;;4.93;2.47;;;;;;;;;;4996740;28;20476;-83
2024/04/06 06:36:52;;;;;;;3.80;1.87;;;;;;;;;;4996635;28;20418;-76
2024/04/06 06:39:18;;;;;;;4.57;2.47;;;;;;;;;;4996638;28;20427;-79
2024/04/06 06:41:44;;;;;;;3.43;2.77;;;;;;;;;;4996138;28;20199;-77
2024/04/06 06:44:10;;;;;;;4.20;2.07;;;;;;;;;;4995211;28;20484;-81
2024/04/06 06:46:36;;;;;;;7.60;3.23;;;;;;;;;;4996128;28;20230;-82
2024/04/06 06:49:02;;;;;;;5.40;1.87;;;;;;;;;;4996392;28;20591;-78
2024/04/06 06:51:28;;;;;;;8.73;3.13;;;;;;;;;;4995070;28;20933;-78
2024/04/06 06:53:54;;;;;;;6.53;3.03;;;;;;;;;;4996710;28;20422;-75
2024/04/06 06:56:22;;;;;;;6.00;2.13;;;;;;;;;;4994860;28;20450;-76
2024/04/06 06:58:48;;;;;;;4.80;2.70;;;;;;;;;;4996435;28;20169;-77
2024/04/06 07:01:14;;;;;;;5.40;2.27;;;;;;;;;;4996266;28;20457;-78
2024/04/06 07:03:40;;;;;;;6.33;1.70;;;;;;;;;;4996180;28;20462;-80
2024/04/06 07:06:08;;;;;;;5.83;2.67;;;;;;;;;;4996310;28;20422;-75
2024/04/06 07:08:34;;;;;;;4.27;1.83;;;;;;;;;;4995830;28;20629;-77
2024/04/06 07:11:03;;;;;;;2.47;1.30;;;;;;;;;;4995077;28;20446;-76
2024/04/06 07:13:29;;;;;;;7.17;2.17;;;;;;;;;;4995670;28;20416;-77
2024/04/06 07:16:02;;;;;;;3.17;1.40;;;;;;;;;;4995693;28;20480;-79
2024/04/06 07:18:27;;;;;;;2.93;1.43;;;;;;;;;;4995890;28;20411;-79
2024/04/06 07:20:53;;;;;;;3.80;2.30;;;;;;;;;;4996164;28;20805;-76
2024/04/06 07:23:19;;;;;;;4.93;1.37;;;;;;;;;;4995577;28;20214;-77
2024/04/06 07:25:45;;;;;;;4.33;2.50;;;;;;;;;;4995777;28;20180;-76
2024/04/06 07:28:11;;;;;;;3.50;2.00;;;;;;;;;;4995175;28;20411;-77
2024/04/06 07:30:37;;;;;;;4.73;3.17;;;;;;;;;;4994974;28;20581;-76
2024/04/06 07:33:03;;;;;;;6.10;3.30;;;;;;;;;;4995276;28;20203;-77
2024/04/06 07:35:29;;;;;;;3.37;2.63;;;;;;;;;;4995077;28;20181;-75
2024/04/06 07:37:55;;;;;;;4.77;2.60;;;;;;;;;;4995430;28;21125;-77
2024/04/06 07:40:21;;;;;;;5.87;2.80;;;;;;;;;;4995373;28;20186;-77
2024/04/06 07:42:46;;;;;;;5.43;3.10;;;;;;;;;;4995185;28;20628;-75
2024/04/06 07:45:12;;;;;;;4.90;3.07;;;;;;;;;;4995198;28;20258;-76
2024/04/06 07:47:39;;;;;;;5.70;3.10;;;;;;;;;;4995249;28;20691;-75
2024/04/06 07:50:05;;;;;;;4.63;3.00;;;;;;;;;;4995247;28;20414;-76
2024/04/06 07:52:32;;;;;;;3.23;2.50;;;;;;;;;;4994783;28;20176;-79
2024/04/06 07:54:58;;;;;;;5.37;2.90;;;;;;;;;;4994854;28;20501;-79
2024/04/06 07:57:23;;;;;;;5.50;2.97;;;;;;;;;;4994109;28;20447;-76
2024/04/06 07:59:49;;;;;;;6.07;2.90;;;;;;;;;;4994888;28;20270;-76
2024/04/06 08:02:15;;;;;;;5.13;2.37;;;;;;;;;;4995862;28;20299;-76
2024/04/06 08:04:41;;;;;;;4.57;2.97;;;;;;;;;;4995155;28;20561;-75
2024/04/06 08:07:07;;;;;;;4.60;2.53;;;;;;;;;;4994752;28;20647;-77
2024/04/06 08:09:33;;;;;;;6.00;2.70;;;;;;;;;;4994518;28;20176;-76
2024/04/06 08:11:59;;;;;;;6.53;2.40;;;;;;;;;;4994157;28;20426;-75
2024/04/06 08:14:25;;;;;;;3.27;2.57;;;;;;;;;;4994774;28;20418;-79
2024/04/06 08:16:52;;;;;;;3.30;2.87;;;;;;;;;;4994742;28;20645;-76
2024/04/06 08:19:17;;;;;;;7.17;3.07;;;;;;;;;;4994777;28;20498;-78
2024/04/06 08:21:43;;;;;;;3.33;2.40;;;;;;;;;;4994684;28;20830;-79
2024/04/06 08:24:09;;;;;;;4.43;2.97;;;;;;;;;;4994493;28;20225;-76
2024/04/06 08:26:36;;;;;;;4.60;2.50;;;;;;;;;;4994178;28;20434;-86
2024/04/06 08:29:02;;;;;;;4.30;2.53;;;;;;;;;;4993413;28;20218;-76
2024/04/06 08:31:28;;;;;;;4.33;2.20;;;;;;;;;;4994378;28;20498;-76
2024/04/06 08:33:54;;;;;;;3.93;3.30;;;;;;;;;;4993229;28;20525;-85
2024/04/06 08:36:20;;;;;;;5.60;3.57;;;;;;;;;;4994516;28;20414;-76
2024/04/06 08:38:46;;;;;;;7.47;3.13;;;;;;;;;;4994607;28;20178;-81
2024/04/06 08:41:13;;;;;;;3.63;2.60;;;;;;;;;;4993853;28;20413;-75
2024/04/06 08:43:44;;;;;;;6.20;2.63;;;;;;;;;;4994184;28;20296;-75
2024/04/06 08:46:09;;;;;;;4.40;2.30;;;;;;;;;;4993729;28;20537;-75
2024/04/06 08:48:36;;;;;;;3.27;2.57;;;;;;;;;;4994034;28;20963;-76
2024/04/06 08:51:11;;;;;;;3.80;2.20;;;;;;;;;;4993845;28;20209;-77
2024/04/06 08:53:37;;;;;;;4.57;2.33;;;;;;;;;;4993811;28;20512;-76
2024/04/06 08:56:07;;;;;;;3.13;2.83;;;;;;;;;;4992307;28;20977;-76
2024/04/06 08:58:33;;;;;;;4.20;2.17;;;;;;;;;;4993861;28;20272;-78
2024/04/06 09:01:00;;;;;;;5.87;2.60;;;;;;;;;;4993988;28;20468;-77
2024/04/06 09:03:26;;;;;;;6.07;2.90;;;;;;;;;;4987600;28;20431;-79
2024/04/06 09:05:53;;;;;;;5.67;1.80;;;;;;;;;;4982438;28;20490;-79
2024/04/06 09:08:19;;;;;;;4.73;2.17;;;;;;;;;;4974529;28;20422;-80
2024/04/06 09:10:46;;;;;;;4.27;3.27;;;;;;;;;;4973236;28;20498;-77
2024/04/06 09:13:12;;;;;;;3.57;1.93;;;;;;;;;;4974467;28;20259;-82
2024/04/06 09:15:39;;;;;;;4.07;2.50;;;;;;;;;;4974669;28;20442;-80
2024/04/06 09:18:06;;;;;;;5.73;2.30;;;;;;;;;;4974823;28;20502;-80
2024/04/06 09:20:31;;;;;;;4.30;1.93;;;;;;;;;;4975030;28;20419;-80
2024/04/06 09:22:58;;;;;;;4.07;2.30;;;;;;;;;;4974667;28;20779;-79
2024/04/06 09:25:24;;;;;;;4.63;2.30;;;;;;;;;;4974458;28;20275;-80
2024/04/06 09:27:50;;;;;;;4.27;3.00;;;;;;;;;;4973928;28;20901;-79
2024/04/06 09:30:19;;;;;;;3.93;2.67;;;;;;;;;;4974223;28;20207;-76
2024/04/06 09:32:46;;;;;;;4.93;3.00;;;;;;;;;;4973399;28;20403;-76
2024/04/06 09:35:12;;;;;;;4.63;2.73;;;;;;;;;;4974359;28;20443;-76
2024/04/06 09:37:39;;;;;;;5.23;3.03;;;;;;;;;;4974740;28;20908;-76
2024/04/06 09:40:06;;;;;;;4.90;2.57;;;;;;;;;;4975748;28;20412;-76
2024/04/06 09:42:32;;;;;;;4.90;3.17;;;;;;;;;;4974396;28;20404;-79
2024/04/06 09:44:59;;;;;;;5.00;3.50;;;;;;;;;;4974305;28;20562;-81
2024/04/06 09:47:25;;;;;;;4.90;2.67;;;;;;;;;;4972678;28;20439;-80
2024/04/06 09:49:51;;;;;;;3.33;2.90;;;;;;;;;;4990001;28;20429;-84
2024/04/06 09:52:19;;;;;;;4.90;3.50;;;;;;;;;;4992909;28;20415;-82
2024/04/06 09:54:46;;;;;;;5.37;3.33;;;;;;;;;;4993183;28;20414;-79
2024/04/06 09:57:13;;;;;;;3.13;1.73;;;;;;;;;;4992720;28;20501;-77
2024/04/06 09:59:40;;;;;;;4.90;2.83;;;;;;;;;;4993191;28;20415;-77
2024/04/06 10:02:06;;;;;;;4.00;2.83;;;;;;;;;;4992997;28;20411;-77
2024/04/06 10:04:36;;;;;;;5.53;2.67;;;;;;;;;;4992771;28;20506;-80
2024/04/06 10:07:02;;;;;;;3.10;2.10;;;;;;;;;;4993058;28;20407;-81
2024/04/06 10:09:32;;;;;;;7.20;2.70;;;;;;;;;;4992604;28;20422;-77
2024/04/06 10:11:58;;;;;;;6.13;2.70;;;;;;;;;;4992437;28;20461;-78
2024/04/06 10:14:26;;;;;;;7.10;3.17;;;;;;;;;;4992532;28;20507;-78
2024/04/06 10:16:52;;;;;;;4.83;2.67;;;;;;;;;;4992956;28;20410;-78
2024/04/06 10:19:19;;;;;;;3.33;1.97;;;;;;;;;;4992689;28;20938;-83
2024/04/06 10:21:45;;;;;;;4.33;2.07;;;;;;;;;;4994620;28;20403;-85
2024/04/06 10:24:12;;;;;;;2.63;1.90;;;;;;;;;;4996528;28;20532;-78
2024/04/06 10:26:48;;;;;;;2.20;2.00;;;;;;;;;;4995222;28;20418;-78
2024/04/06 10:29:14;;;;;;;4.90;1.70;;;;;;;;;;4996312;28;20414;-81
2024/04/06 10:31:43;;;;;;;4.90;1.77;;;;;;;;;;4995091;28;20422;-77
2024/04/06 10:34:09;;;;;;;2.97;1.50;;;;;;;;;;4996313;28;20414;-84
2024/04/06 10:36:35;;;;;;;3.47;1.93;;;;;;;;;;4996126;28;20407;-81
2024/04/06 10:39:04;;;;;;;3.03;1.80;;;;;;;;;;4995936;28;20422;-79
2024/04/06 10:41:30;;;;;;;3.73;1.50;;;;;;;;;;4995463;28;20782;-78
2024/04/06 10:43:56;;;;;;;3.70;1.40;;;;;;;;;;4995581;28;20473;-77
2024/04/06 10:46:22;;;;;;;4.20;1.80;;;;;;;;;;4995058;28;20310;-78
2024/04/06 10:48:48;;;;;;;2.67;1.50;;;;;;;;;;4995855;28;20497;-78
2024/04/06 10:51:14;;;;;;;2.63;1.30;;;;;;;;;;4995566;28;20502;-77
2024/04/06 10:53:40;;;;;;;4.80;1.47;;;;;;;;;;4992839;28;20186;-76
2024/04/06 10:56:06;;;;;;;2.40;1.23;;;;;;;;;;4994361;28;20176;-76
2024/04/06 10:58:32;;;;;;;3.47;0.83;;;;;;;;;;4995573;28;20912;-81
2024/04/06 11:00:58;;;;;;;2.70;1.00;;;;;;;;;;4995459;28;20407;-77
2024/04/06 11:03:24;;;;;;;5.07;1.13;;;;;;;;;;4994459;28;20903;-78
2024/04/06 11:05:51;;;;;;;1.83;1.07;;;;;;;;;;4996088;28;20176;-78
2024/04/06 11:08:17;;;;;;;2.80;0.60;;;;;;;;;;4995941;28;20167;-77
2024/04/06 11:10:43;;;;;;;1.57;0.67;;;;;;;;;;4995677;28;20454;-79
2024/04/06 11:13:09;;;;;;;1.80;0.80;;;;;;;;;;4995774;28;20179;-79
2024/04/06 11:15:35;;;;;;;1.97;0.87;;;;;;;;;;4995970;28;20231;-77
2024/04/06 11:18:02;;;;;;;2.93;0.53;;;;;;;;;;4995910;28;20180;-78
2024/04/06 11:20:32;;;;;;;1.00;0.33;;;;;;;;;;4995782;28;20259;-77
2024/04/06 11:22:58;;;;;;;2.10;1.00;;;;;;;;;;4995354;28;20423;-82
2024/04/06 11:25:26;;;;;;;3.10;1.07;;;;;;;;;;4995020;28;20470;-79
2024/04/06 11:27:52;;;;;;;3.47;0.60;;;;;;;;;;4995720;28;20183;-76
2024/04/06 11:30:19;;;;;;;1.97;0.40;;;;;;;;;;4995001;28;20415;-77
2024/04/06 11:32:48;;;;;;;1.57;0.50;;;;;;;;;;4994150;28;20490;-78
2024/04/06 11:35:14;;;;;;;2.23;0.50;;;;;;;;;;4990214;28;20533;-77
2024/04/06 11:37:40;;;;;;;2.73;0.70;;;;;;;;;;4985668;28;20445;-77
2024/04/06 11:40:08;;;;;;;3.13;0.60;;;;;;;;;;4975559;28;20264;-75
2024/04/06 11:42:34;;;;;;;2.00;0.70;;;;;;;;;;4975711;28;20419;-79
2024/04/06 11:45:00;;;;;;;2.77;0.80;;;;;;;;;;4975450;28;20478;-78
2024/04/06 11:47:26;;;;;;;2.20;0.83;;;;;;;;;;4975626;28;20482;-83
2024/04/06 11:49:52;;;;;;;1.83;0.57;;;;;;;;;;4975667;28;20904;-76
2024/04/06 11:52:18;;;;;;;3.17;0.93;;;;;;;;;;4978253;28;20530;-83
2024/04/06 11:54:44;;;;;;;3.37;0.60;;;;;;;;;;4983321;28;20180;-78
2024/04/06 11:57:10;;;;;;;1.17;0.87;;;;;;;;;;4974932;28;20408;-81
2024/04/06 11:59:36;;;;;;;1.03;0.80;;;;;;;;;;4975089;28;20637;-78
2024/04/06 12:02:02;;;;;;;1.50;0.77;;;;;;;;;;4989416;28;20454;-75
2024/04/06 12:04:28;;;;;;;2.93;0.50;;;;;;;;;;4994639;28;20242;-76
2024/04/06 12:06:55;;;;;;;3.37;0.93;;;;;;;;;;4994487;28;20632;-76
2024/04/06 12:09:21;;;;;;;3.17;0.53;;;;;;;;;;4994478;28;20573;-78
2024/04/06 12:11:47;;;;;;;3.70;0.77;;;;;;;;;;4994075;28;20915;-76
2024/04/06 12:14:13;;;;;;;1.77;0.50;;;;;;;;;;4994328;28;20620;-77
2024/04/06 12:16:39;;;;;;;2.77;0.57;;;;;;;;;;4994295;28;20425;-85
2024/04/06 12:19:06;;;;;;;1.30;0.53;;;;;;;;;;4994042;28;20186;-77
2024/04/06 12:21:32;;;;;;;1.90;0.80;;;;;;;;;;4994180;28;20172;-85
2024/04/06 12:23:58;;;;;;;1.53;0.50;;;;;;;;;;4994170;28;20470;-80
2024/04/06 12:26:24;;;;;;;1.70;0.40;;;;;;;;;;4993856;28;20511;-77
2024/04/06 12:28:50;;;;;;;3.60;0.30;;;;;;;;;;4994181;28;20241;-77
2024/04/06 12:31:17;;;;;;;2.50;0.57;;;;;;;;;;4993853;28;20171;-80
2024/04/06 12:33:43;;;;;;;3.10;0.67;;;;;;;;;;4993896;28;20810;-80
2024/04/06 12:36:09;;;;;;;1.83;0.80;;;;;;;;;;4987813;28;20434;-77
2024/04/06 12:38:37;;;;;;;1.30;0.30;;;;;;;;;;4978940;28;20202;-77
2024/04/06 12:41:04;;;;;;;2.67;0.70;;;;;;;;;;4993855;28;20411;-79
2024/04/06 12:43:30;;;;;;;2.17;0.53;;;;;;;;;;4990304;28;20418;-78
2024/04/06 12:45:56;;;;;;;0.93;0.20;;;;;;;;;;4992206;28;20830;-85
2024/04/06 12:48:22;;;;;;;1.50;0.50;;;;;;;;;;4993457;28;20255;-83
2024/04/06 12:50:50;;;;;;;1.33;0.53;;;;;;;;;;4993246;28;20483;-83
2024/04/06 12:53:16;;;;;;;1.13;0.30;;;;;;;;;;4992018;28;20651;-76
2024/04/06 12:55:42;;;;;;;0.80;0.20;;;;;;;;;;4992988;28;20419;-85
2024/04/06 12:58:08;;;;;;;4.83;0.70;;;;;;;;;;4993300;28;20191;-78
2024/04/06 13:00:34;;;;;;;1.90;0.23;;;;;;;;;;4993068;28;20226;-78
2024/04/06 13:03:00;;;;;;;1.77;0.30;;;;;;;;;;4993055;28;20418;-76
2024/04/06 13:05:27;;;;;;;1.17;0.40;;;;;;;;;;4993142;28;20614;-76
2024/04/06 13:07:53;;;;;;;0.73;0.30;;;;;;;;;;4993329;28;20482;-77
2024/04/06 13:10:20;;;;;;;4.03;1.00;;;;;;;;;;4992137;28;20446;-77
2024/04/06 13:12:46;;;;;;;1.00;0.30;;;;;;;;;;4992539;28;20415;-77
2024/04/06 13:15:11;;;;;;;1.60;0.20;;;;;;;;;;4993495;28;20425;-77
2024/04/06 13:17:38;;;;;;;1.00;0.33;;;;;;;;;;4993707;28;20418;-78
2024/04/06 13:22:42;;;;;;;1.20;0.20;;;;;;;;;;4993937;28;20962;-78
2024/04/06 13:25:09;;;;;;;0.93;0.40;;;;;;;;;;4991692;28;20563;-77
2024/04/06 13:27:35;;;;;;;1.23;0.33;;;;;;;;;;4992782;28;20419;-80
2024/04/06 13:30:01;;;;;;;3.77;0.60;;;;;;;;;;4993034;28;20458;-74
2024/04/06 13:32:27;;;;;;;0.50;0.23;;;;;;;;;;4993503;28;20415;-77
2024/04/06 13:34:53;;;;;;;1.20;0.30;;;;;;;;;;4990213;28;20645;-75
2024/04/06 13:37:20;;;;;;;4.00;0.30;;;;;;;;;;4982712;28;20233;-75
2024/04/06 13:39:46;;;;;;;2.40;0.60;;;;;;;;;;4989090;28;20460;-75
2024/04/06 13:42:12;;;;;;;2.00;0.30;;;;;;;;;;4973842;28;20492;-77
2024/04/06 13:44:38;;;;;;;1.00;0.40;;;;;;;;;;4974027;28;20479;-76
2024/04/06 13:47:04;;;;;;;0.73;0.20;;;;;;;;;;4988747;28;20963;-76
2024/04/06 13:49:30;;;;;;;4.67;2.70;;;;;;;;;;4973827;28;20458;-75
2024/04/06 13:51:57;;;;;;;2.80;0.50;;;;;;;;;;4973890;28;20499;-75
2024/04/06 13:54:23;;;;;;;1.33;0.63;;;;;;;;;;4973853;28;20420;-77
2024/04/06 13:56:48;;;;;;;2.80;0.80;;;;;;;;;;4975566;28;20434;-75
2024/04/06 13:59:15;;;;;;;0.83;0.33;;;;;;;;;;4977685;28;20420;-74
2024/04/06 14:01:40;;;;;;;1.23;0.43;;;;;;;;;;4977633;28;20618;-75
2024/04/06 14:04:06;;;;;;;1.00;0.20;;;;;;;;;;4977401;28;20613;-77
2024/04/06 14:06:32;;;;;;;2.47;0.70;;;;;;;;;;4977496;28;20176;-77
2024/04/06 14:08:58;;;;;;;2.87;0.43;;;;;;;;;;4983937;28;20184;-77
2024/04/06 14:11:31;;;;;;;1.17;0.23;;;;;;;;;;4996440;28;20549;-77
2024/04/06 14:14:00;;;;;;;1.50;0.27;;;;;;;;;;4994475;28;20415;-77
2024/04/06 14:16:27;;;;;;;1.60;0.30;;;;;;;;;;4997534;28;20418;-80
2024/04/06 14:18:53;;;;;;;1.80;0.30;;;;;;;;;;4996921;28;20779;-82
2024/04/06 14:21:19;;;;;;;1.13;0.30;;;;;;;;;;4997219;28;20407;-82
2024/04/06 14:23:45;;;;;;;1.67;0.20;;;;;;;;;;4997513;28;20215;-81
2024/04/06 14:26:11;;;;;;;2.97;0.20;;;;;;;;;;4997442;28;20556;-78
2024/04/06 14:28:37;;;;;;;1.93;0.23;;;;;;;;;;4997385;28;20179;-81
2024/04/06 14:31:03;;;;;;;0.77;0.30;;;;;;;;;;4997526;28;20445;-82
2024/04/06 14:33:30;;;;;;;0.83;0.20;;;;;;;;;;4997424;28;20415;-88
2024/04/06 14:35:56;;;;;;;1.33;0.37;;;;;;;;;;4992442;28;20439;-81
2024/04/06 14:38:22;;;;;;;1.13;0.30;;;;;;;;;;4996840;28;20756;-87
2024/04/06 14:40:47;;;;;;;0.93;0.50;;;;;;;;;;4996337;28;20182;-83